Time;durP1;ratioP1;P1;durP2;ratioP2;P2;SDS_P1;SDS_P2;PMS_P1;PMS_P2;Temp;Humidity;BMP_temperature;BMP_pressure;BME280_temperature;BME280_humidity;BME280_pressure;Samples;Min_cycle;Max_cycle;Signal;HPM_P1;HPM_P2
2021/01/30 00:02:16;;;;;;;2.80;1.57;;;9.10;99.90;;;;;;5064111;28;20537;-72
2021/01/30 00:05:02;;;;;;;4.07;1.70;;;9.10;99.90;;;;;;5059302;28;20458;-72
2021/01/30 00:07:48;;;;;;;3.35;1.20;;;9.10;99.90;;;;;;5056223;28;20438;-73
2021/01/30 00:10:33;;;;;;;7.00;1.50;;;9.10;99.90;;;;;;5058997;28;20244;-72
2021/01/30 00:13:18;;;;;;;3.40;1.50;;;9.00;99.90;;;;;;5062022;28;20470;-72
2021/01/30 00:16:05;;;;;;;5.60;1.50;;;9.10;99.90;;;;;;5062086;28;20870;-73
2021/01/30 00:18:50;;;;;;;3.67;1.97;;;9.10;99.90;;;;;;5062121;28;20450;-72
2021/01/30 00:21:35;;;;;;;3.93;1.60;;;9.20;99.90;;;;;;5069848;28;20475;-72
2021/01/30 00:24:23;;;;;;;7.35;2.67;;;9.10;99.90;;;;;;5069582;28;20534;-72
2021/01/30 00:27:09;;;;;;;5.45;1.88;;;9.00;99.90;;;;;;5058512;28;20205;-73
2021/01/30 00:29:54;;;;;;;3.97;2.10;;;9.10;99.90;;;;;;5067611;28;20227;-73
2021/01/30 00:32:39;;;;;;;11.23;2.30;;;9.10;99.90;;;;;;5061206;28;20434;-72
2021/01/30 00:35:26;;;;;;;4.50;2.60;;;9.10;99.90;;;;;;5059272;28;20438;-72
2021/01/30 00:38:12;;;;;;;5.57;2.47;;;9.10;99.90;;;;;;5066938;28;20442;-72
2021/01/30 00:40:58;;;;;;;6.10;1.90;;;9.10;99.90;;;;;;5069181;28;20664;-73
2021/01/30 00:43:43;;;;;;;7.80;2.90;;;9.10;99.90;;;;;;5065069;28;20467;-72
2021/01/30 00:46:29;;;;;;;8.03;2.77;;;9.10;99.90;;;;;;5065096;28;20447;-73
2021/01/30 00:49:14;;;;;;;4.73;2.10;;;9.10;99.90;;;;;;5065266;28;20542;-73
2021/01/30 00:51:59;;;;;;;7.60;2.70;;;9.10;99.90;;;;;;5065366;28;20467;-73
2021/01/30 00:54:44;;;;;;;6.20;2.23;;;9.20;99.90;;;;;;5064872;28;21011;-72
2021/01/30 00:57:30;;;;;;;4.30;2.20;;;9.20;99.90;;;;;;5061242;28;20569;-72
2021/01/30 01:00:18;;;;;;;14.50;2.10;;;9.10;99.90;;;;;;5059581;28;20460;-72
2021/01/30 01:03:04;;;;;;;5.77;2.53;;;9.20;99.90;;;;;;5062700;28;20502;-73
2021/01/30 01:05:49;;;;;;;10.40;2.50;;;9.10;99.90;;;;;;5054879;28;20441;-73
2021/01/30 01:08:34;;;;;;;7.90;1.73;;;9.00;99.90;;;;;;5059809;28;20467;-73
2021/01/30 01:11:19;;;;;;;5.50;1.90;;;9.00;99.90;;;;;;5066818;28;20486;-73
2021/01/30 01:14:06;;;;;;;4.67;1.70;;;8.90;99.90;;;;;;5060783;28;20502;-73
2021/01/30 01:16:52;;;;;;;4.20;2.10;;;9.00;99.90;;;;;;5056238;28;20526;-72
2021/01/30 01:19:37;;;;;;;6.63;2.23;;;9.00;99.90;;;;;;5060192;28;20559;-72
2021/01/30 01:22:23;;;;;;;6.30;1.80;;;9.00;99.90;;;;;;5056466;28;20490;-72
2021/01/30 01:25:09;;;;;;;5.03;2.00;;;9.00;99.90;;;;;;5066596;28;20438;-72
2021/01/30 01:27:54;;;;;;;4.23;1.50;;;8.90;99.90;;;;;;5066031;28;20443;-72
2021/01/30 01:30:40;;;;;;;7.00;2.17;;;8.90;99.90;;;;;;5066066;28;20838;-72
2021/01/30 01:33:25;;;;;;;6.33;1.57;;;8.90;99.90;;;;;;5063816;28;20481;-72
2021/01/30 01:36:13;;;;;;;3.13;1.30;;;8.90;99.90;;;;;;5060282;28;20491;-72
2021/01/30 01:38:58;;;;;;;3.92;1.20;;;8.80;99.90;;;;;;5057555;28;20913;-72
2021/01/30 01:41:44;;;;;;;3.77;1.47;;;8.80;99.90;;;;;;5061719;28;20192;-73
2021/01/30 01:44:29;;;;;;;4.40;1.93;;;8.90;99.90;;;;;;5064738;28;20496;-72
2021/01/30 01:47:20;;;;;;;8.00;2.00;;;8.90;99.90;;;;;;5061824;28;20450;-72
2021/01/30 01:50:08;;;;;;;6.45;1.80;;;8.90;99.90;;;;;;5060434;28;20983;-73
2021/01/30 01:52:57;;;;;;;4.70;2.15;;;8.80;99.90;;;;;;5055483;28;20258;-72
2021/01/30 01:55:49;;;;;;;7.35;2.22;;;8.80;99.90;;;;;;5060531;28;20209;-73
2021/01/30 01:58:40;;;;;;;4.10;1.50;;;8.90;99.90;;;;;;5065479;28;20289;-72
2021/01/30 02:01:25;;;;;;;4.38;1.60;;;8.90;99.90;;;;;;5065368;28;20311;-73
2021/01/30 02:04:13;;;;;;;4.63;1.50;;;8.90;99.90;;;;;;5065213;28;20201;-73
2021/01/30 02:07:00;;;;;;;4.85;1.75;;;8.90;99.90;;;;;;5054429;28;20577;-72
2021/01/30 02:09:45;;;;;;;2.97;1.25;;;8.90;99.90;;;;;;5060843;28;20625;-72
2021/01/30 02:12:30;;;;;;;2.70;1.30;;;8.80;99.90;;;;;;5065595;28;20228;-72
2021/01/30 02:15:18;;;;;;;2.50;1.37;;;8.80;99.90;;;;;;5063972;28;20204;-72
2021/01/30 02:18:23;;;;;;;5.40;1.40;;;8.80;99.90;;;;;;5056134;28;20455;-72
2021/01/30 02:21:38;;;;;;;3.13;1.50;;;8.90;99.90;;;;;;5061074;28;20255;-72
2021/01/30 02:25:11;;;;;;;3.83;1.40;;;8.90;99.90;;;;;;5055932;28;20587;-72
2021/01/30 02:28:18;;;;;;;5.00;1.40;;;8.90;99.90;;;;;;5046804;28;20489;-72
2021/01/30 02:31:36;;;;;;;3.83;1.70;;;8.90;99.90;;;;;;5063175;28;20227;-72
2021/01/30 02:34:44;;;;;;;4.27;1.30;;;8.80;99.90;;;;;;5027383;28;20459;-73
2021/01/30 02:37:37;;;;;;;5.77;1.53;;;8.80;99.90;;;;;;5058960;28;20501;-73
2021/01/30 02:40:25;;;;;;;3.23;1.30;;;8.80;99.90;;;;;;5057505;28;20469;-73
2021/01/30 02:43:14;;;;;;;4.00;2.13;;;8.90;99.90;;;;;;5062943;28;20497;-73
2021/01/30 02:46:04;;;;;;;10.00;1.50;;;8.90;99.90;;;;;;5064871;28;20574;-73
2021/01/30 02:48:56;;;;;;;4.75;1.60;;;8.90;99.90;;;;;;5064666;28;20447;-73
2021/01/30 02:51:45;;;;;;;4.83;1.50;;;8.80;99.90;;;;;;5060195;28;20272;-74
2021/01/30 02:54:33;;;;;;;6.50;1.60;;;8.70;99.90;;;;;;5058176;28;20496;-72
2021/01/30 02:57:19;;;;;;;5.27;1.80;;;8.80;99.90;;;;;;5066694;28;20458;-72
2021/01/30 03:00:08;;;;;;;3.95;1.63;;;8.70;99.90;;;;;;5058126;28;20471;-72
2021/01/30 03:02:53;;;;;;;7.72;1.42;;;8.70;99.90;;;;;;5059926;28;20214;-73
2021/01/30 03:05:38;;;;;;;2.30;1.50;;;8.80;99.90;;;;;;5066164;28;20204;-72
2021/01/30 03:08:29;;;;;;;5.32;1.52;;;8.70;99.90;;;;;;5060202;28;20443;-72
2021/01/30 03:11:20;;;;;;;4.10;1.70;;;8.70;99.90;;;;;;5063305;28;20219;-73
2021/01/30 03:14:09;;;;;;;3.30;1.50;;;8.80;99.90;;;;;;5061066;28;20507;-72
2021/01/30 03:16:56;;;;;;;13.37;1.93;;;8.80;99.90;;;;;;5054035;28;20530;-72
2021/01/30 03:19:42;;;;;;;7.13;1.67;;;8.70;99.90;;;;;;5067700;28;20493;-73
2021/01/30 03:22:30;;;;;;;4.77;1.97;;;8.70;99.90;;;;;;5059202;28;20442;-72
2021/01/30 03:25:20;;;;;;;4.30;1.87;;;8.70;99.90;;;;;;5064797;28;21094;-72
2021/01/30 03:28:06;;;;;;;10.90;1.90;;;8.70;99.90;;;;;;5061688;28;21250;-72
2021/01/30 03:30:51;;;;;;;3.53;1.30;;;8.60;99.90;;;;;;5063874;28;20474;-72
2021/01/30 03:33:37;;;;;;;3.60;1.60;;;8.60;99.90;;;;;;5060094;28;20465;-72
2021/01/30 03:36:22;;;;;;;4.87;1.40;;;8.70;99.90;;;;;;5064383;28;20465;-72
2021/01/30 03:39:08;;;;;;;7.00;1.33;;;8.60;99.90;;;;;;5059090;28;20490;-72
2021/01/30 03:41:53;;;;;;;5.30;1.77;;;8.60;99.90;;;;;;5065646;28;20982;-72
2021/01/30 03:44:40;;;;;;;5.00;2.10;;;8.60;99.90;;;;;;5066672;28;20437;-73
2021/01/30 03:47:25;;;;;;;4.97;1.70;;;8.70;99.90;;;;;;5065298;28;20986;-72
2021/01/30 03:50:12;;;;;;;4.30;1.53;;;8.60;99.90;;;;;;5064257;28;21281;-73
2021/01/30 03:52:58;;;;;;;4.97;1.30;;;8.60;99.90;;;;;;5058342;28;21100;-72
2021/01/30 03:55:43;;;;;;;4.60;1.53;;;8.70;99.90;;;;;;5060258;28;20267;-73
2021/01/30 03:58:29;;;;;;;5.23;1.37;;;8.80;99.90;;;;;;5064686;28;20445;-72
2021/01/30 04:01:15;;;;;;;5.23;2.00;;;8.80;99.90;;;;;;5067036;28;20478;-72
2021/01/30 04:04:00;;;;;;;6.30;1.43;;;8.80;99.90;;;;;;5057841;28;20434;-72
2021/01/30 04:06:47;;;;;;;3.33;1.67;;;8.70;99.90;;;;;;5060266;28;20469;-72
2021/01/30 04:09:32;;;;;;;6.40;1.37;;;8.60;99.90;;;;;;5064818;28;20513;-73
2021/01/30 04:12:17;;;;;;;4.70;1.53;;;8.60;99.90;;;;;;5066153;28;20487;-72
2021/01/30 04:15:02;;;;;;;4.50;1.40;;;8.60;99.90;;;;;;5058807;28;20489;-72
2021/01/30 04:17:48;;;;;;;2.57;1.40;;;8.50;99.90;;;;;;5062082;28;20492;-72
2021/01/30 04:20:33;;;;;;;4.37;1.70;;;8.50;99.90;;;;;;5066220;28;20462;-72
2021/01/30 04:23:18;;;;;;;5.33;1.53;;;8.50;99.90;;;;;;5064714;28;20496;-72
2021/01/30 04:26:04;;;;;;;4.60;1.60;;;8.50;99.90;;;;;;5061835;28;20451;-72
2021/01/30 04:28:49;;;;;;;4.65;2.58;;;8.40;99.90;;;;;;5061276;28;20231;-72
2021/01/30 04:31:34;;;;;;;4.23;2.00;;;8.40;99.90;;;;;;5059059;28;20252;-72
2021/01/30 04:34:20;;;;;;;6.15;2.10;;;8.40;99.90;;;;;;5063556;28;20439;-73
2021/01/30 04:37:05;;;;;;;4.90;2.30;;;8.40;99.90;;;;;;5062307;28;20212;-72
2021/01/30 04:39:50;;;;;;;5.72;2.45;;;8.40;99.90;;;;;;5069030;28;20487;-72
2021/01/30 04:42:41;;;;;;;10.68;2.28;;;8.30;99.90;;;;;;5063869;28;20225;-73
2021/01/30 04:45:39;;;;;;;6.00;2.15;;;8.40;99.90;;;;;;5069021;28;20236;-73
2021/01/30 04:48:37;;;;;;;7.23;3.00;;;8.40;99.90;;;;;;5062846;28;20268;-73
2021/01/30 04:51:31;;;;;;;7.80;2.97;;;8.40;99.90;;;;;;5063563;28;20481;-72
2021/01/30 04:54:40;;;;;;;6.78;3.45;;;8.50;99.90;;;;;;5061984;28;20578;-73
2021/01/30 04:57:37;;;;;;;7.63;3.47;;;8.60;99.90;;;;;;5060846;28;20207;-72
2021/01/30 05:00:45;;;;;;;8.47;2.97;;;8.60;99.90;;;;;;5063038;28;20232;-72
2021/01/30 05:04:05;;;;;;;5.17;2.20;;;8.50;99.90;;;;;;5064207;28;20450;-73
2021/01/30 05:07:02;;;;;;;6.50;2.30;;;8.50;99.90;;;;;;5063355;28;20450;-72
2021/01/30 05:09:52;;;;;;;8.60;3.30;;;8.60;99.90;;;;;;5062005;28;20598;-72
2021/01/30 05:12:44;;;;;;;5.80;1.80;;;8.60;99.90;;;;;;5066441;28;20960;-72
2021/01/30 05:15:33;;;;;;;6.27;3.20;;;8.60;99.90;;;;;;5056242;28;20451;-72
2021/01/30 05:18:20;;;;;;;8.13;3.60;;;8.60;99.90;;;;;;5066405;28;20446;-73
2021/01/30 05:21:12;;;;;;;10.63;2.70;;;8.70;99.90;;;;;;5058832;28;20463;-72
2021/01/30 05:23:58;;;;;;;6.43;2.20;;;8.70;99.90;;;;;;5066288;28;20791;-73
2021/01/30 05:26:55;;;;;;;4.50;2.23;;;8.70;99.90;;;;;;5063889;28;20488;-73
2021/01/30 05:29:48;;;;;;;7.50;2.10;;;8.60;99.90;;;;;;5060241;28;20837;-72
2021/01/30 05:32:43;;;;;;;6.13;2.20;;;8.60;99.90;;;;;;5057686;28;20932;-72
2021/01/30 05:35:36;;;;;;;8.87;2.30;;;8.40;99.90;;;;;;5061387;28;20456;-73
2021/01/30 05:38:37;;;;;;;7.43;2.33;;;8.40;99.90;;;;;;5061750;28;20520;-72
2021/01/30 05:41:37;;;;;;;8.60;2.97;;;8.40;99.90;;;;;;5066678;28;20876;-72
2021/01/30 05:44:33;;;;;;;9.57;2.47;;;8.50;99.90;;;;;;5061894;28;20500;-73
2021/01/30 05:47:22;;;;;;;4.90;2.13;;;8.50;99.90;;;;;;5054127;28;20448;-72
2021/01/30 05:50:15;;;;;;;9.20;2.30;;;8.50;99.90;;;;;;5066495;28;20566;-72
2021/01/30 05:53:01;;;;;;;6.50;2.83;;;8.50;99.90;;;;;;5063987;28;20488;-72
2021/01/30 05:55:46;;;;;;;5.40;2.10;;;8.40;99.90;;;;;;5065427;28;20534;-73
2021/01/30 05:58:39;;;;;;;8.23;2.23;;;8.40;99.90;;;;;;5055329;28;21015;-72
2021/01/30 06:01:26;;;;;;;7.13;1.93;;;8.40;99.90;;;;;;5061854;28;20750;-72
2021/01/30 06:04:13;;;;;;;5.37;2.33;;;8.40;99.90;;;;;;5064675;28;21047;-72
2021/01/30 06:06:58;;;;;;;11.17;4.77;;;8.40;99.90;;;;;;5062225;28;20811;-72
2021/01/30 06:09:45;;;;;;;6.82;2.63;;;8.40;99.90;;;;;;5057460;28;20470;-72
2021/01/30 06:12:33;;;;;;;5.30;2.23;;;8.50;99.90;;;;;;5069106;28;20220;-73
2021/01/30 06:15:22;;;;;;;5.70;2.70;;;8.50;99.90;;;;;;5065630;28;20446;-73
2021/01/30 06:18:36;;;;;;;10.37;5.60;;;8.50;99.90;;;;;;5061379;28;20443;-72
2021/01/30 06:21:22;;;;;;;11.93;5.07;;;8.40;99.90;;;;;;5054313;28;20467;-73
2021/01/30 06:24:09;;;;;;;10.97;3.20;;;8.30;99.90;;;;;;5064390;28;20500;-73
2021/01/30 06:26:56;;;;;;;8.52;3.55;;;8.30;99.90;;;;;;5062805;28;20972;-73
2021/01/30 06:29:46;;;;;;;7.57;2.60;;;8.30;99.90;;;;;;5063896;28;20231;-73
2021/01/30 06:32:37;;;;;;;6.63;2.30;;;8.30;99.90;;;;;;5062315;28;20536;-73
2021/01/30 06:35:24;;;;;;;13.60;4.47;;;8.30;99.90;;;;;;5067001;28;20446;-72
2021/01/30 06:38:18;;;;;;;8.07;2.90;;;8.20;99.90;;;;;;5057661;28;20448;-72
2021/01/30 06:41:05;;;;;;;11.33;3.47;;;8.20;99.90;;;;;;5062861;28;20459;-72
2021/01/30 06:44:04;;;;;;;13.80;7.60;;;8.20;99.90;;;;;;5057442;28;20856;-72
2021/01/30 06:47:11;;;;;;;14.05;2.85;;;8.20;99.90;;;;;;5059994;28;20445;-73
2021/01/30 06:49:58;;;;;;;7.17;3.20;;;8.30;99.90;;;;;;5064278;28;20772;-72
2021/01/30 06:52:43;;;;;;;14.13;3.30;;;8.30;99.90;;;;;;5063798;28;20478;-72
2021/01/30 06:55:28;;;;;;;11.20;3.90;;;8.30;99.90;;;;;;5068296;28;20238;-72
2021/01/30 06:58:26;;;;;;;15.90;4.10;;;8.30;99.90;;;;;;5064213;28;20534;-72
2021/01/30 07:01:13;;;;;;;14.23;4.50;;;8.30;99.90;;;;;;5066924;28;21059;-73
2021/01/30 07:04:10;;;;;;;15.30;4.27;;;8.40;99.90;;;;;;5059958;28;20525;-73
2021/01/30 07:07:06;;;;;;;9.10;3.67;;;8.40;99.90;;;;;;5065274;28;20443;-73
2021/01/30 07:10:16;;;;;;;14.60;2.97;;;8.30;99.90;;;;;;5063680;28;20563;-72
2021/01/30 07:13:26;;;;;;;28.90;12.17;;;8.40;99.90;;;;;;5074390;28;20482;-72
2021/01/30 07:16:20;;;;;;;21.07;6.80;;;8.30;99.90;;;;;;5063652;28;20442;-72
2021/01/30 07:19:16;;;;;;;27.23;4.53;;;8.20;99.90;;;;;;5059178;28;20442;-72
2021/01/30 07:22:09;;;;;;;21.63;4.70;;;8.20;99.90;;;;;;5066118;28;21018;-73
2021/01/30 07:25:00;;;;;;;19.53;5.03;;;8.20;99.90;;;;;;5065559;28;20536;-72
2021/01/30 07:27:50;;;;;;;14.70;4.50;;;8.20;99.90;;;;;;5066121;28;20446;-74
2021/01/30 07:30:42;;;;;;;18.87;5.10;;;8.30;99.90;;;;;;5063822;28;20494;-73
2021/01/30 07:33:34;;;;;;;16.63;4.03;;;8.30;99.90;;;;;;5058188;28;21009;-72
2021/01/30 07:36:24;;;;;;;15.57;3.83;;;8.30;99.90;;;;;;5070217;28;20212;-73
2021/01/30 07:39:28;;;;;;;17.30;4.95;;;8.30;99.90;;;;;;5060280;28;20204;-72
2021/01/30 07:42:16;;;;;;;12.18;3.70;;;8.30;99.90;;;;;;5064425;28;20696;-72
2021/01/30 07:45:11;;;;;;;22.10;6.07;;;8.40;99.90;;;;;;5071734;28;20617;-73
2021/01/30 07:48:08;;;;;;;16.35;4.10;;;8.30;99.90;;;;;;5058279;28;20211;-73
2021/01/30 07:50:55;;;;;;;14.50;3.83;;;8.30;99.90;;;;;;5063438;28;20227;-72
2021/01/30 07:53:41;;;;;;;22.40;4.28;;;8.40;99.90;;;;;;5060972;28;20537;-73
2021/01/30 07:56:38;;;;;;;22.27;4.82;;;8.40;99.90;;;;;;5065502;28;20251;-73
2021/01/30 07:59:35;;;;;;;12.05;3.10;;;8.40;99.90;;;;;;5065204;28;20306;-73
2021/01/30 08:02:57;;;;;;;13.07;4.87;;;8.40;99.90;;;;;;5064700;28;20635;-73
2021/01/30 08:05:49;;;;;;;23.27;3.87;;;8.30;99.90;;;;;;5043609;28;20473;-73
2021/01/30 08:08:40;;;;;;;16.37;3.47;;;8.30;99.90;;;;;;5065274;28;20479;-72
2021/01/30 08:11:31;;;;;;;8.23;3.20;;;8.30;99.90;;;;;;5066038;28;20476;-72
2021/01/30 08:14:32;;;;;;;14.98;3.97;;;8.20;99.90;;;;;;5063583;28;20504;-72
2021/01/30 08:17:47;;;;;;;10.30;3.17;;;8.20;99.90;;;;;;5059754;28;20278;-72
2021/01/30 08:20:40;;;;;;;19.98;4.13;;;8.30;99.90;;;;;;5064832;28;20466;-72
2021/01/30 08:23:48;;;;;;;13.00;3.40;;;8.30;99.90;;;;;;5064520;28;20262;-73
2021/01/30 08:26:38;;;;;;;17.60;4.20;;;8.30;99.90;;;;;;5059082;28;20217;-73
2021/01/30 08:29:28;;;;;;;24.10;4.53;;;8.30;99.90;;;;;;5061554;28;21004;-73
2021/01/30 08:32:39;;;;;;;12.40;3.30;;;8.30;99.90;;;;;;5067698;28;20587;-73
2021/01/30 08:35:55;;;;;;;16.15;3.78;;;8.40;99.90;;;;;;5064408;28;20212;-72
2021/01/30 08:38:40;;;;;;;17.20;3.97;;;8.40;99.90;;;;;;5066004;28;20216;-73
2021/01/30 08:42:07;;;;;;;15.33;3.60;;;8.40;99.90;;;;;;5062520;28;20649;-72
2021/01/30 08:44:57;;;;;;;13.73;3.50;;;8.40;99.90;;;;;;5059776;28;20523;-73
2021/01/30 08:48:23;;;;;;;12.03;3.33;;;8.30;99.90;;;;;;5068026;28;20474;-72
2021/01/30 08:51:18;;;;;;;16.70;4.33;;;8.30;99.90;;;;;;5063918;28;20466;-72
2021/01/30 08:54:40;;;;;;;12.63;3.70;;;8.20;99.90;;;;;;5060044;28;20535;-72
2021/01/30 08:57:44;;;;;;;18.20;4.17;;;8.30;99.90;;;;;;5064682;28;20485;-72
2021/01/30 09:00:52;;;;;;;16.30;3.63;;;8.40;99.90;;;;;;5062797;28;20597;-73
2021/01/30 09:03:47;;;;;;;11.17;4.30;;;8.50;99.90;;;;;;5060053;28;20452;-73
2021/01/30 09:06:56;;;;;;;14.50;3.50;;;8.50;99.90;;;;;;5068092;28;20445;-72
2021/01/30 09:10:16;;;;;;;15.70;3.20;;;8.50;99.90;;;;;;5067718;28;20484;-73
2021/01/30 09:13:04;;;;;;;14.07;3.63;;;8.60;99.90;;;;;;5058621;28;20514;-73
2021/01/30 09:16:00;;;;;;;15.23;4.30;;;8.60;99.90;;;;;;5061123;28;20925;-73
2021/01/30 09:18:57;;;;;;;18.90;4.20;;;8.60;99.90;;;;;;5063977;28;20482;-72
2021/01/30 09:21:56;;;;;;;14.33;4.00;;;8.60;99.90;;;;;;5066387;28;20478;-72
2021/01/30 09:25:06;;;;;;;20.43;4.10;;;8.70;99.90;;;;;;5062572;28;20971;-72
2021/01/30 09:27:59;;;;;;;14.03;3.83;;;8.70;99.90;;;;;;5062565;28;20451;-72
2021/01/30 09:30:52;;;;;;;15.43;4.50;;;8.80;99.90;;;;;;5067917;28;20517;-72
2021/01/30 09:33:41;;;;;;;24.30;4.45;;;8.70;99.90;;;;;;5058843;28;20216;-72
2021/01/30 09:36:31;;;;;;;17.23;4.40;;;8.80;99.90;;;;;;5063875;28;20634;-72
2021/01/30 09:39:22;;;;;;;17.93;4.43;;;8.90;99.90;;;;;;5059159;28;21046;-72
2021/01/30 09:42:10;;;;;;;20.75;4.20;;;8.80;99.90;;;;;;5065801;28;20469;-72
2021/01/30 09:45:06;;;;;;;14.30;3.90;;;8.90;99.90;;;;;;5054905;28;20399;-71
2021/01/30 09:47:52;;;;;;;27.17;4.50;;;9.00;99.90;;;;;;5061435;28;20485;-72
2021/01/30 09:50:41;;;;;;;20.00;4.60;;;9.00;99.90;;;;;;5063829;28;20467;-72
2021/01/30 09:53:30;;;;;;;17.03;3.90;;;9.10;99.90;;;;;;5058082;28;20443;-72
2021/01/30 09:56:18;;;;;;;14.83;3.83;;;9.20;99.90;;;;;;5064306;28;20493;-72
2021/01/30 09:59:04;;;;;;;24.87;4.47;;;9.20;99.90;;;;;;5059802;28;20451;-72
2021/01/30 10:01:50;;;;;;;14.10;3.67;;;9.10;99.90;;;;;;5063533;28;20462;-72
2021/01/30 10:04:35;;;;;;;11.90;4.60;;;9.20;99.90;;;;;;5061334;28;20441;-72
2021/01/30 10:07:26;;;;;;;17.53;4.00;;;9.30;99.90;;;;;;5065545;28;20481;-72
2021/01/30 10:10:28;;;;;;;15.87;3.50;;;9.40;99.90;;;;;;5064231;28;20458;-72
2021/01/30 10:13:15;;;;;;;20.17;4.40;;;9.40;99.90;;;;;;5067049;28;21081;-72
2021/01/30 10:16:03;;;;;;;12.10;4.40;;;9.30;99.90;;;;;;5066397;28;20455;-72
2021/01/30 10:18:52;;;;;;;16.77;3.87;;;9.30;99.90;;;;;;5061345;28;20451;-72
2021/01/30 10:21:40;;;;;;;25.60;4.30;;;9.20;99.90;;;;;;5067073;28;20473;-72
2021/01/30 10:24:28;;;;;;;21.43;4.93;;;9.10;99.90;;;;;;5066979;28;20442;-72
2021/01/30 10:27:16;;;;;;;19.23;4.03;;;9.10;99.90;;;;;;5066825;28;20462;-72
2021/01/30 10:30:04;;;;;;;24.40;3.77;;;9.10;99.90;;;;;;5061225;28;20459;-72
2021/01/30 10:32:51;;;;;;;19.03;5.50;;;9.20;99.90;;;;;;5055488;28;20469;-72
2021/01/30 10:35:45;;;;;;;15.50;3.93;;;9.20;99.90;;;;;;5065649;28;20482;-72
2021/01/30 10:38:33;;;;;;;20.33;4.13;;;9.20;99.90;;;;;;5063601;28;20442;-72
2021/01/30 10:41:22;;;;;;;15.07;3.80;;;9.20;99.90;;;;;;5062645;28;20461;-72
2021/01/30 10:44:10;;;;;;;21.03;4.93;;;9.30;99.90;;;;;;5055402;28;20497;-72
2021/01/30 10:46:58;;;;;;;21.33;3.97;;;9.40;99.90;;;;;;5054775;28;20470;-72
2021/01/30 10:49:43;;;;;;;23.77;5.40;;;9.50;99.90;;;;;;5058886;28;20554;-72
2021/01/30 10:52:28;;;;;;;28.23;6.73;;;9.50;99.90;;;;;;5055814;28;20551;-72
2021/01/30 10:55:28;;;;;;;21.27;5.70;;;9.60;99.90;;;;;;5060050;28;20470;-72
2021/01/30 10:58:20;;;;;;;24.63;5.13;;;9.70;99.90;;;;;;5057031;28;20459;-72
2021/01/30 11:01:08;;;;;;;17.10;4.50;;;9.70;99.90;;;;;;5054255;28;20487;-72
2021/01/30 11:03:56;;;;;;;31.50;6.57;;;9.70;99.90;;;;;;5053027;28;20466;-72
2021/01/30 11:06:45;;;;;;;14.73;3.90;;;9.70;99.90;;;;;;5065467;28;20653;-72
2021/01/30 11:09:33;;;;;;;15.83;4.70;;;9.70;99.90;;;;;;5060371;28;20470;-72
2021/01/30 11:12:24;;;;;;;19.40;4.60;;;9.70;99.90;;;;;;5061292;28;20509;-72
2021/01/30 11:15:16;;;;;;;28.10;5.60;;;9.70;99.90;;;;;;5060796;28;20461;-72
2021/01/30 11:18:14;;;;;;;16.20;4.43;;;9.60;99.90;;;;;;5054015;28;20443;-72
2021/01/30 11:21:00;;;;;;;20.13;4.13;;;9.60;99.90;;;;;;5054461;28;20471;-72
2021/01/30 11:23:47;;;;;;;22.97;5.20;;;9.70;99.90;;;;;;5063610;28;20908;-72
2021/01/30 11:26:39;;;;;;;15.60;4.70;;;9.70;99.90;;;;;;5060574;28;20454;-72
2021/01/30 11:29:35;;;;;;;22.17;5.63;;;9.80;99.90;;;;;;5057247;28;20830;-72
2021/01/30 11:32:23;;;;;;;16.03;5.20;;;9.80;99.90;;;;;;5052445;28;20471;-72
2021/01/30 11:35:14;;;;;;;5.93;2.30;;;9.80;99.90;;;;;;5062309;28;20469;-72
2021/01/30 11:38:04;;;;;;;5.40;2.57;;;9.70;99.90;;;;;;5063390;28;20834;-72
2021/01/30 11:40:50;;;;;;;4.93;1.70;;;9.50;99.90;;;;;;5062819;28;20508;-72
2021/01/30 11:43:36;;;;;;;5.37;1.50;;;9.30;99.90;;;;;;5062895;28;20454;-72
2021/01/30 11:46:21;;;;;;;3.63;1.33;;;8.90;99.90;;;;;;5063947;28;20450;-72
2021/01/30 11:49:07;;;;;;;2.93;1.27;;;8.70;99.90;;;;;;5067875;28;20453;-72
2021/01/30 11:51:52;;;;;;;3.20;1.57;;;8.50;99.90;;;;;;5065832;28;20504;-72
2021/01/30 11:54:37;;;;;;;2.08;1.45;;;8.40;99.90;;;;;;5065036;28;20520;-72
2021/01/30 11:57:22;;;;;;;3.20;1.77;;;8.20;99.90;;;;;;5059159;28;20213;-72
2021/01/30 12:00:09;;;;;;;2.20;1.23;;;8.10;99.90;;;;;;5059367;28;20845;-72
2021/01/30 12:02:54;;;;;;;2.60;1.33;;;8.00;99.90;;;;;;5056102;28;21006;-72
2021/01/30 12:05:40;;;;;;;2.43;1.50;;;8.00;99.90;;;;;;5066423;28;20448;-72
2021/01/30 12:08:25;;;;;;;1.97;1.70;;;7.90;99.90;;;;;;5066611;28;20509;-72
2021/01/30 12:11:11;;;;;;;1.98;1.15;;;7.80;99.90;;;;;;5067281;28;20467;-72
2021/01/30 12:13:56;;;;;;;3.43;1.57;;;7.80;99.90;;;;;;5064186;28;20200;-72
2021/01/30 12:16:42;;;;;;;2.35;1.40;;;7.90;99.90;;;;;;5070917;28;20966;-72
2021/01/30 12:19:27;;;;;;;2.20;1.25;;;7.80;99.90;;;;;;5067125;28;20305;-72
2021/01/30 12:22:13;;;;;;;2.10;1.57;;;7.70;99.90;;;;;;5062140;28;20207;-72
2021/01/30 12:24:58;;;;;;;3.10;1.87;;;7.60;99.90;;;;;;5056748;28;20498;-72
2021/01/30 12:27:49;;;;;;;3.30;1.90;;;7.60;99.90;;;;;;5067459;28;20483;-72
2021/01/30 12:30:36;;;;;;;4.27;2.00;;;7.50;99.90;;;;;;5063877;28;20256;-72
2021/01/30 12:33:21;;;;;;;2.65;1.90;;;7.50;99.90;;;;;;5065492;28;20505;-72
2021/01/30 12:36:07;;;;;;;3.25;2.40;;;7.60;99.90;;;;;;5067609;28;20212;-72
2021/01/30 12:38:54;;;;;;;2.90;2.17;;;7.60;99.90;;;;;;5064965;28;20196;-72
2021/01/30 12:41:38;;;;;;;2.67;2.20;;;7.50;99.90;;;;;;5067767;28;20224;-72
2021/01/30 12:44:24;;;;;;;3.90;2.60;;;7.50;99.90;;;;;;5066262;28;20204;-72
2021/01/30 12:47:09;;;;;;;3.17;2.88;;;7.40;99.90;;;;;;5060655;28;20454;-72
2021/01/30 12:49:54;;;;;;;4.30;3.15;;;7.40;99.90;;;;;;5057596;28;20698;-72
2021/01/30 12:52:39;;;;;;;3.50;3.17;;;7.40;99.90;;;;;;5058582;28;20299;-72
2021/01/30 12:55:26;;;;;;;3.80;3.15;;;7.30;99.90;;;;;;5064261;28;20204;-72
2021/01/30 12:58:13;;;;;;;3.63;3.15;;;7.30;99.90;;;;;;5061253;28;20697;-72
2021/01/30 13:00:58;;;;;;;3.10;2.70;;;7.30;99.90;;;;;;5067790;28;20299;-72
2021/01/30 13:03:43;;;;;;;3.45;3.15;;;7.10;99.90;;;;;;5064298;28;20250;-72
2021/01/30 13:06:28;;;;;;;4.13;3.30;;;7.00;99.90;;;;;;5058704;28;20251;-72
2021/01/30 13:09:13;;;;;;;4.50;3.30;;;7.00;99.90;;;;;;5067753;28;20724;-72
2021/01/30 13:12:00;;;;;;;4.10;3.30;;;7.10;99.90;;;;;;5059521;28;20239;-72
2021/01/30 13:14:45;;;;;;;4.57;3.83;;;7.10;99.90;;;;;;5068020;28;20239;-72
2021/01/30 13:17:30;;;;;;;3.88;3.47;;;7.00;99.90;;;;;;5058120;28;20212;-72
2021/01/30 13:20:18;;;;;;;4.60;3.40;;;7.00;99.90;;;;;;5063492;28;20263;-72
2021/01/30 13:23:03;;;;;;;5.47;3.85;;;7.00;99.90;;;;;;5061203;28;20209;-72
2021/01/30 13:25:48;;;;;;;3.83;3.35;;;7.00;99.90;;;;;;5060271;28;20618;-72
2021/01/30 13:28:34;;;;;;;4.30;3.50;;;7.10;99.90;;;;;;5058418;28;20212;-72
2021/01/30 13:31:19;;;;;;;4.32;3.20;;;7.00;99.90;;;;;;5063396;28;20267;-72
2021/01/30 13:34:04;;;;;;;3.95;3.15;;;7.00;99.90;;;;;;5059250;28;20204;-72
2021/01/30 13:36:51;;;;;;;3.25;2.92;;;7.00;99.90;;;;;;5059912;28;20247;-72
2021/01/30 13:39:36;;;;;;;3.95;2.83;;;7.10;99.90;;;;;;5065359;28;20223;-72
2021/01/30 13:42:21;;;;;;;3.58;2.60;;;7.10;99.90;;;;;;5064573;28;20204;-72
2021/01/30 13:45:09;;;;;;;3.85;3.00;;;7.10;99.90;;;;;;5058295;28;20258;-72
2021/01/30 13:47:55;;;;;;;3.60;2.70;;;7.10;99.90;;;;;;5054383;28;20671;-72
2021/01/30 13:50:40;;;;;;;3.35;2.80;;;7.10;99.90;;;;;;5058329;28;20509;-72
2021/01/30 13:53:25;;;;;;;4.72;3.42;;;7.00;99.90;;;;;;5065503;28;20216;-72
2021/01/30 13:56:11;;;;;;;3.15;2.55;;;7.00;99.90;;;;;;5066006;28;20249;-72
2021/01/30 13:58:56;;;;;;;4.20;3.10;;;6.80;99.90;;;;;;5057045;28;20207;-72
2021/01/30 14:01:42;;;;;;;3.80;3.40;;;6.90;99.90;;;;;;5053598;28;20192;-72
2021/01/30 14:04:27;;;;;;;3.38;3.08;;;6.80;99.90;;;;;;5063050;28;20204;-72
2021/01/30 14:07:12;;;;;;;3.53;2.75;;;6.80;99.90;;;;;;5060993;28;20204;-71
2021/01/30 14:09:57;;;;;;;3.85;3.10;;;6.80;99.90;;;;;;5057062;28;20277;-72
2021/01/30 14:12:43;;;;;;;3.87;2.93;;;6.80;99.90;;;;;;5064801;28;20223;-72
2021/01/30 14:15:28;;;;;;;2.95;2.30;;;6.80;99.90;;;;;;5057399;28;20445;-72
2021/01/30 14:18:14;;;;;;;4.30;3.03;;;6.80;99.90;;;;;;5066124;28;20579;-72
2021/01/30 14:21:00;;;;;;;3.45;2.50;;;6.80;99.90;;;;;;5063175;28;20667;-72
2021/01/30 14:23:45;;;;;;;3.30;2.83;;;6.80;99.90;;;;;;5058280;28;20273;-72
2021/01/30 14:26:30;;;;;;;3.30;2.80;;;6.90;99.90;;;;;;5067849;28;20195;-72
2021/01/30 14:29:16;;;;;;;3.20;2.55;;;6.90;99.90;;;;;;5060276;28;20259;-72
2021/01/30 14:32:02;;;;;;;3.10;2.30;;;6.80;99.90;;;;;;5065552;28;20228;-72
2021/01/30 14:34:48;;;;;;;4.07;2.80;;;6.80;99.90;;;;;;5067498;28;20204;-72
2021/01/30 14:37:32;;;;;;;2.78;2.33;;;6.80;99.90;;;;;;5056161;28;20847;-72
2021/01/30 14:40:25;;;;;;;3.70;2.75;;;6.80;99.90;;;;;;5061473;28;20244;-72
2021/01/30 14:43:11;;;;;;;5.43;2.35;;;6.80;99.90;;;;;;5065003;28;20208;-72
2021/01/30 14:45:57;;;;;;;2.38;1.80;;;6.80;99.90;;;;;;5061055;28;20263;-72
2021/01/30 14:48:42;;;;;;;2.97;2.42;;;6.80;99.90;;;;;;5056393;28;20200;-72
2021/01/30 14:51:28;;;;;;;2.20;1.73;;;6.80;99.90;;;;;;5061823;28;20267;-72
2021/01/30 14:54:13;;;;;;;3.10;2.20;;;6.80;99.90;;;;;;5064714;28;20424;-72